Time;durP1;ratioP1;P1;durP2;ratioP2;P2;SDS_P1;SDS_P2;PMS_P1;PMS_P2;Temp;Humidity;BMP_temperature;BMP_pressure;BME280_temperature;BME280_humidity;BME280_pressure;Samples;Min_cycle;Max_cycle;Signal;HPM_P1;HPM_P2
2022/08/06 00:01:10;;;;;;;1.00;0.40;;;24.30;53.40;;;;;;4493383;31;20195;-67
2022/08/06 00:03:36;;;;;;;0.43;0.13;;;24.30;53.40;;;;;;4507842;31;20077;-67
2022/08/06 00:06:01;;;;;;;1.02;0.40;;;24.30;53.40;;;;;;4507736;31;20441;-67
2022/08/06 00:08:27;;;;;;;1.77;0.20;;;24.30;53.40;;;;;;4507855;31;20069;-67
2022/08/06 00:10:53;;;;;;;0.98;0.30;;;24.30;53.40;;;;;;4507584;31;20069;-67
2022/08/06 00:13:19;;;;;;;1.73;0.40;;;24.20;53.40;;;;;;4507803;31;20194;-74
2022/08/06 00:15:45;;;;;;;1.30;0.30;;;24.20;53.50;;;;;;4507579;31;20266;-67
2022/08/06 00:18:12;;;;;;;2.00;0.50;;;24.30;53.50;;;;;;4507537;31;20083;-69
2022/08/06 00:20:38;;;;;;;0.95;0.40;;;24.20;53.50;;;;;;4507434;31;20077;-67
2022/08/06 00:23:03;;;;;;;1.67;0.40;;;24.20;53.50;;;;;;4508422;31;20060;-67
2022/08/06 00:25:29;;;;;;;0.95;0.32;;;24.20;53.50;;;;;;4510454;31;20084;-67
2022/08/06 00:27:55;;;;;;;0.40;0.20;;;24.20;53.50;;;;;;4510583;31;20128;-67
2022/08/06 00:30:21;;;;;;;1.00;0.30;;;24.20;53.50;;;;;;4495894;31;20374;-67
2022/08/06 00:32:48;;;;;;;0.95;0.30;;;24.20;53.60;;;;;;4510631;31;20064;-67
2022/08/06 00:35:13;;;;;;;0.90;0.30;;;24.20;53.60;;;;;;4510709;31;20218;-67
2022/08/06 00:37:39;;;;;;;0.77;0.30;;;24.20;53.60;;;;;;4510127;31;20061;-67
2022/08/06 00:40:06;;;;;;;0.52;0.30;;;24.20;53.60;;;;;;4510592;31;20518;-67
2022/08/06 00:42:32;;;;;;;2.90;0.30;;;24.20;53.60;;;;;;4510292;31;20088;-67
2022/08/06 00:44:59;;;;;;;0.60;0.10;;;24.20;53.60;;;;;;4509906;31;20084;-66
2022/08/06 00:47:25;;;;;;;0.52;0.20;;;24.20;53.60;;;;;;4510248;31;20101;-67
2022/08/06 00:49:51;;;;;;;1.67;0.38;;;24.20;53.60;;;;;;4510448;31;20529;-67
2022/08/06 00:52:16;;;;;;;1.60;0.40;;;24.20;53.60;;;;;;4509886;31;20073;-67
2022/08/06 00:54:42;;;;;;;1.30;0.40;;;24.20;53.70;;;;;;4510285;31;20080;-67
2022/08/06 00:57:08;;;;;;;1.58;0.30;;;24.10;53.60;;;;;;4510086;31;20072;-67
2022/08/06 00:59:34;;;;;;;0.50;0.20;;;24.10;53.70;;;;;;4509980;31;20177;-67
2022/08/06 01:01:59;;;;;;;0.55;0.25;;;24.10;53.70;;;;;;4509990;31;20470;-67
2022/08/06 01:04:25;;;;;;;0.70;0.40;;;24.10;53.70;;;;;;4509922;31;20140;-67
2022/08/06 01:06:51;;;;;;;0.28;0.10;;;24.10;53.70;;;;;;4509965;31;20110;-67
2022/08/06 01:09:17;;;;;;;0.90;0.28;;;24.10;53.70;;;;;;4509913;31;20401;-66
2022/08/06 01:11:43;;;;;;;0.80;0.20;;;24.10;53.80;;;;;;4495621;31;20065;-67
2022/08/06 01:14:08;;;;;;;1.20;0.28;;;24.10;53.80;;;;;;4510069;31;20128;-67
2022/08/06 01:16:54;;;;;;;0.50;0.30;;;24.10;53.80;;;;;;4509859;31;20064;-67
2022/08/06 01:20:01;;;;;;;0.95;0.20;;;24.10;53.80;;;;;;4509905;31;20084;-67
2022/08/06 01:22:42;;;;;;;0.68;0.30;;;24.10;53.80;;;;;;4509748;31;20088;-67
2022/08/06 01:25:08;;;;;;;1.20;0.32;;;24.00;53.80;;;;;;4509700;31;20201;-67
2022/08/06 01:27:54;;;;;;;1.05;0.20;;;24.00;53.90;;;;;;4509604;31;20076;-67
2022/08/06 01:30:28;;;;;;;0.63;0.28;;;24.00;53.90;;;;;;4509862;31;20069;-67
2022/08/06 01:32:57;;;;;;;0.40;0.10;;;24.00;53.90;;;;;;4509982;31;20092;-67
2022/08/06 01:35:33;;;;;;;1.00;0.40;;;24.00;53.90;;;;;;4509120;31;20104;-67
2022/08/06 01:38:06;;;;;;;0.55;0.30;;;24.00;53.90;;;;;;4509596;31;20065;-67
2022/08/06 01:40:35;;;;;;;0.65;0.25;;;24.00;53.90;;;;;;4509811;31;20655;-68
2022/08/06 01:43:05;;;;;;;0.45;0.20;;;24.00;53.90;;;;;;4509408;31;20085;-67
2022/08/06 01:45:33;;;;;;;1.30;0.20;;;24.00;54.00;;;;;;4509261;31;20503;-67
2022/08/06 01:48:03;;;;;;;0.60;0.22;;;24.00;54.00;;;;;;4509327;31;20096;-67
2022/08/06 01:50:34;;;;;;;1.08;0.30;;;24.00;54.00;;;;;;4509262;31;20077;-67
2022/08/06 01:53:03;;;;;;;0.75;0.20;;;24.00;54.00;;;;;;4509633;31;20486;-67
2022/08/06 01:55:38;;;;;;;0.68;0.38;;;24.00;54.00;;;;;;4509470;31;20077;-67
2022/08/06 01:58:06;;;;;;;0.85;0.30;;;24.00;54.00;;;;;;4509592;31;20494;-67
2022/08/06 02:00:36;;;;;;;0.50;0.20;;;24.00;54.10;;;;;;4494551;31;20083;-68
2022/08/06 02:03:09;;;;;;;0.50;0.20;;;24.00;54.10;;;;;;4509235;31;20211;-67
2022/08/06 02:05:36;;;;;;;0.32;0.10;;;24.00;54.10;;;;;;4509423;31;20084;-67
2022/08/06 02:08:04;;;;;;;0.68;0.20;;;23.90;54.10;;;;;;4508772;31;20077;-67
2022/08/06 02:10:33;;;;;;;0.82;0.20;;;23.90;54.10;;;;;;4508983;31;20081;-67
2022/08/06 02:13:01;;;;;;;1.10;0.20;;;23.90;54.10;;;;;;4508938;31;20089;-67
2022/08/06 02:15:30;;;;;;;0.63;0.20;;;23.90;54.10;;;;;;4508892;31;20088;-67
2022/08/06 02:17:59;;;;;;;0.95;0.40;;;23.90;54.10;;;;;;4509155;31;20155;-67
2022/08/06 02:20:31;;;;;;;2.53;0.30;;;23.90;54.20;;;;;;4508722;31;20120;-67
2022/08/06 02:23:00;;;;;;;0.70;0.30;;;23.90;54.20;;;;;;4508695;31;20423;-67
2022/08/06 02:25:27;;;;;;;1.33;0.22;;;23.90;54.20;;;;;;4508877;31;20116;-67
2022/08/06 02:27:56;;;;;;;0.63;0.30;;;23.90;54.20;;;;;;4509052;31;20093;-67
2022/08/06 02:30:24;;;;;;;0.50;0.25;;;23.90;54.20;;;;;;4508532;31;20164;-68
2022/08/06 02:32:50;;;;;;;0.65;0.20;;;23.90;54.30;;;;;;4508932;31;20535;-67
2022/08/06 02:35:16;;;;;;;0.65;0.15;;;23.90;54.30;;;;;;4494085;31;20126;-67
2022/08/06 02:37:51;;;;;;;0.50;0.20;;;23.90;54.30;;;;;;4508599;31;20080;-67
2022/08/06 02:40:24;;;;;;;1.02;0.20;;;23.90;54.30;;;;;;4508610;31;20088;-67
2022/08/06 02:42:58;;;;;;;0.80;0.15;;;23.90;54.30;;;;;;4508324;31;20079;-67
2022/08/06 02:45:38;;;;;;;0.20;0.10;;;23.90;54.30;;;;;;4508044;31;20089;-67
2022/08/06 02:48:21;;;;;;;1.02;0.20;;;23.80;54.30;;;;;;4508511;31;20153;-67
2022/08/06 02:50:49;;;;;;;0.83;0.23;;;23.80;54.30;;;;;;4508547;31;20096;-67
2022/08/06 02:53:19;;;;;;;0.63;0.30;;;23.90;54.40;;;;;;4508391;31;20083;-67
2022/08/06 02:55:49;;;;;;;0.43;0.10;;;23.80;54.30;;;;;;4508756;31;20068;-67
2022/08/06 02:58:26;;;;;;;0.40;0.20;;;23.80;54.30;;;;;;4508316;31;20077;-67
2022/08/06 03:00:55;;;;;;;0.55;0.17;;;23.80;54.30;;;;;;4508591;31;20079;-67
2022/08/06 03:03:23;;;;;;;0.30;0.13;;;23.80;54.40;;;;;;4508246;31;20081;-67
2022/08/06 03:05:52;;;;;;;0.52;0.22;;;23.80;54.40;;;;;;4508121;31;20089;-67
2022/08/06 03:08:22;;;;;;;0.45;0.20;;;23.80;54.40;;;;;;4508131;31;20161;-67
2022/08/06 03:10:50;;;;;;;0.28;0.08;;;23.80;54.50;;;;;;4508245;31;20079;-67
2022/08/06 03:13:18;;;;;;;0.32;0.05;;;23.80;54.50;;;;;;4508126;31;20238;-67
2022/08/06 03:15:45;;;;;;;0.73;0.20;;;23.80;55.40;;;;;;4508070;31;20091;-67
2022/08/06 03:18:13;;;;;;;1.00;0.15;;;23.80;54.50;;;;;;4507964;31;20206;-67
2022/08/06 03:20:42;;;;;;;0.50;0.20;;;23.80;54.50;;;;;;4508002;31;20068;-67
2022/08/06 03:23:09;;;;;;;0.40;0.20;;;23.70;54.50;;;;;;4508297;31;20091;-67
2022/08/06 03:25:36;;;;;;;0.28;0.17;;;23.80;54.60;;;;;;4507621;31;20226;-67
2022/08/06 03:28:03;;;;;;;0.20;0.10;;;23.70;54.50;;;;;;4507965;31;20085;-67
2022/08/06 03:30:30;;;;;;;0.88;0.20;;;23.70;54.50;;;;;;4507820;31;20174;-67
2022/08/06 03:32:58;;;;;;;0.57;0.20;;;23.70;54.50;;;;;;4507983;31;20262;-67
2022/08/06 03:35:24;;;;;;;0.32;0.10;;;23.70;54.50;;;;;;4507874;31;20537;-67
2022/08/06 03:37:53;;;;;;;0.28;0.15;;;23.70;54.50;;;;;;4507832;31;20214;-67
2022/08/06 03:40:19;;;;;;;0.60;0.20;;;23.70;54.60;;;;;;4508079;31;20173;-67
2022/08/06 03:42:45;;;;;;;0.45;0.20;;;23.70;54.60;;;;;;4507961;31;20218;-67
2022/08/06 03:45:12;;;;;;;0.55;0.20;;;23.70;54.60;;;;;;4507321;31;20506;-67
2022/08/06 03:47:44;;;;;;;0.20;0.13;;;23.70;54.70;;;;;;4507715;31;20088;-67
2022/08/06 03:50:14;;;;;;;1.20;0.20;;;23.70;54.70;;;;;;4507605;31;20127;-67
2022/08/06 03:52:53;;;;;;;0.85;0.25;;;23.60;54.60;;;;;;4507552;31;20080;-67
2022/08/06 03:55:27;;;;;;;0.32;0.30;;;23.70;54.70;;;;;;4507823;31;20114;-67
2022/08/06 03:58:05;;;;;;;0.55;0.20;;;23.60;54.60;;;;;;4509876;31;20057;-67
2022/08/06 04:00:35;;;;;;;1.70;0.10;;;23.60;54.70;;;;;;4510873;31;20080;-67
2022/08/06 04:03:04;;;;;;;0.40;0.10;;;23.60;54.70;;;;;;4511287;31;20069;-67
2022/08/06 04:05:32;;;;;;;0.50;0.10;;;23.60;55.60;;;;;;4511072;31;20080;-67
2022/08/06 04:08:02;;;;;;;0.30;0.10;;;23.60;54.70;;;;;;4510558;31;20487;-67
2022/08/06 04:10:32;;;;;;;1.20;0.20;;;23.60;54.80;;;;;;4511078;31;20493;-67
2022/08/06 04:12:59;;;;;;;0.70;0.20;;;23.60;54.80;;;;;;4510476;31;20525;-67
2022/08/06 04:15:25;;;;;;;0.28;0.10;;;23.60;54.80;;;;;;4510986;31;20085;-67
2022/08/06 04:17:53;;;;;;;0.57;0.22;;;23.60;54.80;;;;;;4510430;31;20091;-67
2022/08/06 04:20:22;;;;;;;0.60;0.10;;;23.60;54.80;;;;;;4510936;31;20413;-67
2022/08/06 04:22:49;;;;;;;0.28;0.10;;;23.60;54.80;;;;;;4510579;31;20092;-67
2022/08/06 04:25:15;;;;;;;0.90;0.20;;;23.60;54.90;;;;;;4510762;31;20079;-67
2022/08/06 04:27:42;;;;;;;0.30;0.10;;;23.60;54.90;;;;;;4510523;31;20463;-67
2022/08/06 04:30:09;;;;;;;0.22;0.10;;;23.60;54.90;;;;;;4510427;31;20069;-68
2022/08/06 04:32:37;;;;;;;0.80;0.20;;;23.60;54.90;;;;;;4496252;31;20073;-67
2022/08/06 04:35:06;;;;;;;0.10;0.10;;;23.60;55.00;;;;;;4495947;31;20073;-67
2022/08/06 04:37:33;;;;;;;0.35;0.17;;;23.50;54.90;;;;;;4510164;31;20073;-67
2022/08/06 04:39:59;;;;;;;0.20;0.10;;;23.50;54.90;;;;;;4510775;31;20112;-67
2022/08/06 04:42:26;;;;;;;0.65;0.10;;;23.50;54.90;;;;;;4510346;31;20556;-67
2022/08/06 04:44:53;;;;;;;0.80;0.15;;;23.50;55.00;;;;;;4510002;31;20093;-67
2022/08/06 04:47:19;;;;;;;0.55;0.20;;;23.50;54.90;;;;;;4510266;31;20093;-68
2022/08/06 04:49:45;;;;;;;0.20;0.17;;;23.50;55.00;;;;;;4495676;31;20147;-67
2022/08/06 04:52:25;;;;;;;0.43;0.13;;;23.50;55.00;;;;;;4510233;31;20210;-67
2022/08/06 04:54:51;;;;;;;0.50;0.10;;;23.50;55.00;;;;;;4509892;31;20098;-67
2022/08/06 04:57:17;;;;;;;0.68;0.17;;;23.50;55.00;;;;;;4510345;31;20116;-67
2022/08/06 04:59:43;;;;;;;1.35;0.20;;;23.50;55.00;;;;;;4495404;31;20277;-67
2022/08/06 05:02:09;;;;;;;0.43;0.20;;;23.50;55.00;;;;;;4510097;31;20072;-67
2022/08/06 05:04:37;;;;;;;0.57;0.20;;;23.50;55.10;;;;;;4509922;31;20530;-67
2022/08/06 05:07:20;;;;;;;0.90;0.10;;;23.50;55.10;;;;;;4510020;31;20206;-67
2022/08/06 05:09:48;;;;;;;0.40;0.10;;;23.50;55.10;;;;;;4509490;31;20579;-67
2022/08/06 05:12:23;;;;;;;0.25;0.10;;;23.40;55.10;;;;;;4509647;31;20096;-67
2022/08/06 05:15:12;;;;;;;0.10;0.00;;;23.50;55.10;;;;;;4510252;31;20093;-67
2022/08/06 05:17:49;;;;;;;0.50;0.10;;;23.50;55.20;;;;;;4509641;31;20088;-67
2022/08/06 05:20:19;;;;;;;0.17;0.03;;;23.50;55.20;;;;;;4510152;31;20233;-67
2022/08/06 05:22:49;;;;;;;0.63;0.10;;;23.40;55.20;;;;;;4509727;31;20422;-67
2022/08/06 05:25:16;;;;;;;0.43;0.13;;;23.40;55.20;;;;;;4509610;31;20095;-67
2022/08/06 05:27:43;;;;;;;0.77;0.20;;;23.40;55.20;;;;;;4509637;31;20083;-66
2022/08/06 05:30:09;;;;;;;0.65;0.20;;;23.50;55.20;;;;;;4509534;31;20083;-67
2022/08/06 05:32:46;;;;;;;0.30;0.10;;;23.40;55.20;;;;;;4509873;31;20157;-67
2022/08/06 05:35:13;;;;;;;0.30;0.10;;;23.50;55.30;;;;;;4495258;31;20091;-66
2022/08/06 05:37:39;;;;;;;0.52;0.30;;;23.40;55.20;;;;;;4509746;31;20169;-67
2022/08/06 05:40:06;;;;;;;0.10;0.10;;;23.40;55.20;;;;;;4509523;31;20090;-67
2022/08/06 05:42:32;;;;;;;1.00;0.20;;;23.40;55.20;;;;;;4509402;31;20383;-67
2022/08/06 05:44:58;;;;;;;0.88;0.30;;;23.40;55.20;;;;;;4509129;31;20288;-67
2022/08/06 05:47:27;;;;;;;0.50;0.20;;;23.40;55.20;;;;;;4509402;31;20080;-67
2022/08/06 05:50:08;;;;;;;0.32;0.10;;;23.40;55.30;;;;;;4509397;31;20173;-66
2022/08/06 05:52:37;;;;;;;0.00;0.00;;;23.40;55.30;;;;;;4509506;31;20065;-67
2022/08/06 05:55:18;;;;;;;0.57;0.20;;;23.40;55.30;;;;;;4509460;31;20077;-66
2022/08/06 05:57:51;;;;;;;0.63;0.13;;;23.40;55.30;;;;;;4509258;31;20227;-67
2022/08/06 06:00:19;;;;;;;0.63;0.20;;;23.40;55.40;;;;;;4509233;31;20127;-66
2022/08/06 06:02:48;;;;;;;0.70;0.20;;;23.40;55.40;;;;;;4509147;31;20221;-67
2022/08/06 06:05:15;;;;;;;0.20;0.10;;;23.40;55.40;;;;;;4509021;31;20064;-67
2022/08/06 06:07:42;;;;;;;0.10;0.00;;;23.50;55.40;;;;;;4509343;31;20064;-67
2022/08/06 06:10:09;;;;;;;0.28;0.10;;;23.50;55.40;;;;;;4509166;31;20179;-67
2022/08/06 06:12:37;;;;;;;0.30;0.20;;;23.50;55.40;;;;;;4508957;31;20166;-67
2022/08/06 06:15:05;;;;;;;0.20;0.10;;;23.50;55.30;;;;;;4508663;31;20065;-66
2022/08/06 06:17:36;;;;;;;0.10;0.10;;;23.50;55.30;;;;;;4508914;31;20221;-67
2022/08/06 06:20:37;;;;;;;0.45;0.10;;;23.60;55.40;;;;;;4508541;31;20421;-67
2022/08/06 06:23:19;;;;;;;0.70;0.10;;;23.60;55.40;;;;;;4508901;31;20153;-67
2022/08/06 06:26:00;;;;;;;0.25;0.10;;;23.60;55.40;;;;;;4508778;31;20131;-66
2022/08/06 06:28:44;;;;;;;1.00;0.13;;;23.60;55.40;;;;;;4508803;31;20089;-66
2022/08/06 06:31:33;;;;;;;0.30;0.10;;;23.60;55.40;;;;;;4508688;31;20195;-67
2022/08/06 06:34:18;;;;;;;0.52;0.15;;;23.60;55.40;;;;;;4508579;31;20092;-67
2022/08/06 06:36:59;;;;;;;;;;;23.60;55.50;;;;;;4509386;31;20069;-66
2022/08/06 06:39:52;;;;;;;0.20;0.10;;;23.60;55.50;;;;;;4508952;31;19980;-67
2022/08/06 06:42:25;;;;;;;0.20;0.10;;;23.60;55.50;;;;;;4508364;31;20195;-67
2022/08/06 06:45:18;;;;;;;0.15;0.10;;;23.70;55.50;;;;;;4508365;31;20064;-67
2022/08/06 06:47:59;;;;;;;0.35;0.10;;;23.70;55.60;;;;;;4493895;31;20532;-66
2022/08/06 06:50:32;;;;;;;0.17;0.08;;;23.70;55.60;;;;;;4508238;31;20158;-66
2022/08/06 06:52:58;;;;;;;0.53;0.20;;;23.70;55.60;;;;;;4508488;31;20406;-66
2022/08/06 06:55:43;;;;;;;0.73;0.28;;;23.70;55.60;;;;;;4508309;31;20065;-67
2022/08/06 06:58:33;;;;;;;0.88;0.28;;;23.70;55.60;;;;;;4508366;31;20202;-66
2022/08/06 07:01:00;;;;;;;1.02;0.30;;;23.70;55.60;;;;;;4508150;31;20468;-67
2022/08/06 07:03:28;;;;;;;1.08;0.20;;;23.70;55.70;;;;;;4508215;31;20089;-67
2022/08/06 07:05:55;;;;;;;1.38;0.20;;;23.70;55.60;;;;;;4508385;31;20084;-67
2022/08/06 07:08:23;;;;;;;1.88;0.20;;;23.70;55.40;;;;;;4507818;31;20084;-67
2022/08/06 07:10:50;;;;;;;0.93;0.20;;;23.70;55.40;;;;;;4508096;31;20088;-67
2022/08/06 07:13:19;;;;;;;1.50;0.38;;;23.70;55.50;;;;;;4508087;31;20076;-67
2022/08/06 07:15:46;;;;;;;0.82;0.25;;;23.70;55.50;;;;;;4508301;31;20069;-67
2022/08/06 07:18:14;;;;;;;1.65;0.30;;;23.80;55.50;;;;;;4493550;31;20093;-67
2022/08/06 07:20:43;;;;;;;2.67;0.43;;;23.80;55.40;;;;;;4507942;31;20517;-67
2022/08/06 07:23:10;;;;;;;3.50;0.35;;;23.70;55.30;;;;;;4507954;31;20142;-67
2022/08/06 07:25:45;;;;;;;1.60;0.30;;;23.70;55.30;;;;;;4493922;31;20080;-67
2022/08/06 07:28:14;;;;;;;1.55;0.52;;;23.70;55.00;;;;;;4508066;31;20064;-67
2022/08/06 07:30:41;;;;;;;1.98;0.50;;;23.70;55.30;;;;;;4507558;31;20543;-67
2022/08/06 07:33:10;;;;;;;3.00;0.50;;;23.80;55.20;;;;;;4507708;31;20112;-67
2022/08/06 07:35:40;;;;;;;4.22;0.63;;;23.80;55.20;;;;;;4507533;31;20230;-75
2022/08/06 07:38:09;;;;;;;3.45;0.52;;;23.80;55.20;;;;;;4507932;31;20072;-68
2022/08/06 07:40:47;;;;;;;1.70;0.45;;;23.80;55.20;;;;;;4507524;31;20092;-67
2022/08/06 07:43:21;;;;;;;1.15;0.32;;;23.80;55.10;;;;;;4507954;31;20077;-66
2022/08/06 07:45:50;;;;;;;1.88;0.50;;;23.90;55.10;;;;;;4507713;31;20109;-66
2022/08/06 07:48:19;;;;;;;4.72;0.40;;;23.90;55.10;;;;;;4507727;31;20599;-67
2022/08/06 07:50:50;;;;;;;2.45;0.43;;;24.00;54.90;;;;;;4507782;31;20077;-67
2022/08/06 07:53:16;;;;;;;2.80;0.50;;;24.00;54.90;;;;;;4507795;31;20092;-67
2022/08/06 07:55:43;;;;;;;1.48;0.30;;;24.00;54.80;;;;;;4507717;31;20137;-67
2022/08/06 07:58:10;;;;;;;2.35;0.60;;;24.10;54.80;;;;;;4507680;31;20084;-67
2022/08/06 08:00:37;;;;;;;2.53;0.55;;;24.10;54.80;;;;;;4493508;31;20069;-67
2022/08/06 08:08:34;;;;;;;3.15;0.70;;;24.20;54.70;;;;;;4507894;31;20076;-67
2022/08/06 08:11:01;;;;;;;2.10;0.52;;;24.20;54.80;;;;;;4507281;31;20136;-67
2022/08/06 08:13:27;;;;;;;2.97;0.68;;;24.20;54.60;;;;;;4507578;31;20124;-67
2022/08/06 08:15:55;;;;;;;0.88;0.45;;;24.30;54.70;;;;;;4507510;31;20085;-67
2022/08/06 08:18:27;;;;;;;1.70;0.50;;;24.30;54.40;;;;;;4507477;31;20072;-67
2022/08/06 08:20:56;;;;;;;3.20;0.55;;;24.20;54.50;;;;;;4507614;31;20065;-67
2022/08/06 08:23:23;;;;;;;2.65;0.70;;;24.20;54.60;;;;;;4507315;31;20506;-69
2022/08/06 08:25:49;;;;;;;2.83;0.70;;;24.20;54.50;;;;;;4507380;31;20096;-67
2022/08/06 08:28:15;;;;;;;1.92;0.68;;;24.20;54.30;;;;;;4507180;31;20077;-67
2022/08/06 08:30:42;;;;;;;2.05;0.63;;;24.20;54.30;;;;;;4507420;31;20061;-67
2022/08/06 08:33:09;;;;;;;1.90;0.70;;;24.20;54.20;;;;;;4507381;31;20173;-67
2022/08/06 08:35:35;;;;;;;1.90;0.70;;;24.20;54.20;;;;;;4493378;31;20072;-67
2022/08/06 08:38:01;;;;;;;2.25;1.00;;;24.20;54.20;;;;;;4507552;31;20072;-67
2022/08/06 08:40:29;;;;;;;1.63;0.88;;;24.20;54.10;;;;;;4507192;31;20099;-67
2022/08/06 08:42:58;;;;;;;3.53;1.00;;;24.20;54.00;;;;;;4507552;31;20165;-67
2022/08/06 08:45:25;;;;;;;1.45;0.70;;;24.20;54.00;;;;;;4509549;31;20081;-66
2022/08/06 08:47:53;;;;;;;2.08;1.00;;;24.20;53.90;;;;;;4510225;31;20403;-66
2022/08/06 08:50:22;;;;;;;2.63;1.40;;;24.20;53.90;;;;;;4510215;31;20099;-66
2022/08/06 08:52:50;;;;;;;1.45;0.90;;;24.20;53.70;;;;;;4510357;31;20120;-66
2022/08/06 08:55:22;;;;;;;2.03;0.88;;;24.20;53.60;;;;;;4510201;31;20170;-67
2022/08/06 08:57:51;;;;;;;2.30;0.68;;;24.30;53.50;;;;;;4509883;31;20103;-66
2022/08/06 09:00:17;;;;;;;3.45;0.93;;;24.30;53.40;;;;;;4509911;31;20151;-66
2022/08/06 09:02:44;;;;;;;1.63;0.93;;;24.30;53.30;;;;;;4509987;31;20084;-66
2022/08/06 09:05:10;;;;;;;5.00;0.93;;;24.30;53.30;;;;;;4509823;31;20088;-66
2022/08/06 09:07:37;;;;;;;4.03;1.10;;;24.30;53.20;;;;;;4509667;31;20081;-67
2022/08/06 09:10:05;;;;;;;2.05;1.00;;;24.40;53.10;;;;;;4509644;31;20614;-66
2022/08/06 09:12:32;;;;;;;6.03;1.13;;;24.40;52.90;;;;;;4509575;31;20089;-67
2022/08/06 09:14:58;;;;;;;2.63;1.10;;;24.40;52.80;;;;;;4509548;31;20210;-67
2022/08/06 09:17:25;;;;;;;1.67;1.10;;;24.40;52.70;;;;;;4509602;31;20392;-66
2022/08/06 09:19:52;;;;;;;3.30;1.23;;;24.40;52.60;;;;;;4509714;31;20596;-66
2022/08/06 09:22:18;;;;;;;2.47;1.25;;;24.50;52.40;;;;;;4509559;31;20116;-66
2022/08/06 09:24:44;;;;;;;3.97;1.15;;;24.50;52.50;;;;;;4509629;31;20532;-66
2022/08/06 09:27:15;;;;;;;2.17;1.23;;;24.50;52.50;;;;;;4509369;31;20080;-65
2022/08/06 09:29:59;;;;;;;2.80;1.38;;;24.50;52.30;;;;;;4509931;31;20211;-66
2022/08/06 09:32:46;;;;;;;4.20;1.33;;;24.50;52.10;;;;;;4509766;31;20490;-66
2022/08/06 09:35:19;;;;;;;2.40;1.02;;;24.50;52.20;;;;;;4509660;31;20092;-66
2022/08/06 09:37:45;;;;;;;2.28;1.50;;;24.50;52.00;;;;;;4509533;31;20212;-66
2022/08/06 09:40:12;;;;;;;2.70;1.70;;;24.50;52.10;;;;;;4509221;31;20161;-66
2022/08/06 09:42:42;;;;;;;3.13;1.60;;;24.50;51.70;;;;;;4509691;31;20088;-66
2022/08/06 09:45:10;;;;;;;6.15;1.40;;;24.50;51.80;;;;;;4509287;31;20073;-66
2022/08/06 09:47:37;;;;;;;3.80;1.42;;;24.50;51.90;;;;;;4495325;31;20077;-66
2022/08/06 09:50:06;;;;;;;3.92;1.70;;;24.50;51.80;;;;;;4509318;31;20077;-66
2022/08/06 09:52:31;;;;;;;3.42;1.67;;;24.50;51.70;;;;;;4509307;31;20087;-66
2022/08/06 09:54:57;;;;;;;2.22;1.23;;;24.60;51.80;;;;;;4508933;31;20105;-66
2022/08/06 09:57:25;;;;;;;6.47;1.40;;;24.60;51.80;;;;;;4508907;31;20379;-66
2022/08/06 09:59:51;;;;;;;3.55;1.88;;;24.60;51.80;;;;;;4509362;31;20239;-67
2022/08/06 10:02:19;;;;;;;4.03;1.70;;;24.60;51.80;;;;;;4509233;31;20550;-67
2022/08/06 10:04:47;;;;;;;2.50;1.45;;;24.60;51.70;;;;;;4509018;31;20089;-66
2022/08/06 10:07:13;;;;;;;2.67;1.40;;;24.60;51.70;;;;;;4509073;31;20138;-67
2022/08/06 10:09:57;;;;;;;2.08;1.60;;;24.70;51.40;;;;;;4508766;31;20094;-67
2022/08/06 10:12:24;;;;;;;2.80;1.70;;;24.70;50.80;;;;;;4509053;31;20414;-67
2022/08/06 10:14:50;;;;;;;3.22;1.80;;;24.60;50.80;;;;;;4508913;31;20072;-67
2022/08/06 10:17:19;;;;;;;4.22;1.65;;;24.60;51.00;;;;;;4508923;31;20068;-66
2022/08/06 10:20:06;;;;;;;3.42;1.65;;;24.60;51.30;;;;;;4508880;31;20088;-67
2022/08/06 10:22:32;;;;;;;2.70;1.70;;;24.60;51.40;;;;;;4509149;31;20153;-67
2022/08/06 10:25:04;;;;;;;2.45;1.63;;;24.60;51.50;;;;;;4508905;31;20064;-67
2022/08/06 10:27:36;;;;;;;3.60;1.67;;;24.60;51.40;;;;;;4508889;31;20064;-67
2022/08/06 10:30:06;;;;;;;4.70;2.00;;;24.60;51.50;;;;;;4508769;31;20090;-67
2022/08/06 10:32:41;;;;;;;3.03;2.30;;;24.60;51.30;;;;;;4508644;31;20224;-69
2022/08/06 10:35:08;;;;;;;3.95;1.90;;;24.60;51.20;;;;;;4508622;31;20663;-66
2022/08/06 10:37:41;;;;;;;2.15;1.65;;;24.60;50.90;;;;;;4508632;31;20127;-67
2022/08/06 10:40:10;;;;;;;3.35;2.00;;;24.60;50.50;;;;;;4508860;31;20112;-66
2022/08/06 10:42:37;;;;;;;4.80;2.03;;;24.60;50.50;;;;;;4508212;31;20072;-69
2022/08/06 10:45:04;;;;;;;3.28;1.90;;;24.60;50.70;;;;;;4508212;31;20083;-66
2022/08/06 10:47:31;;;;;;;2.13;1.75;;;24.70;51.00;;;;;;4508166;31;20087;-72
2022/08/06 10:49:58;;;;;;;2.35;1.75;;;24.60;50.90;;;;;;4508441;31;20099;-67
2022/08/06 10:52:24;;;;;;;4.80;2.00;;;24.60;50.60;;;;;;4508552;31;20157;-67
2022/08/06 10:54:51;;;;;;;3.13;2.28;;;24.60;50.40;;;;;;4508350;31;20086;-66
2022/08/06 10:57:18;;;;;;;4.00;2.17;;;24.60;50.10;;;;;;4508011;31;20128;-67
2022/08/06 10:59:45;;;;;;;2.95;2.28;;;24.60;50.00;;;;;;4508244;31;20465;-66
2022/08/06 11:02:49;;;;;;;2.00;1.75;;;24.60;49.80;;;;;;4508175;31;20246;-66
2022/08/06 11:05:21;;;;;;;3.80;2.20;;;24.60;50.40;;;;;;4508434;31;20069;-67
2022/08/06 11:07:47;;;;;;;3.78;2.33;;;24.60;50.60;;;;;;4507872;31;20081;-67
2022/08/06 11:10:42;;;;;;;4.10;2.53;;;24.60;50.80;;;;;;4507830;31;20127;-66
2022/08/06 11:13:23;;;;;;;5.90;2.47;;;24.60;50.10;;;;;;4485325;31;20254;-66
2022/08/06 11:15:50;;;;;;;3.90;2.42;;;24.60;50.10;;;;;;4508146;31;20624;-66
2022/08/06 11:18:17;;;;;;;4.22;2.28;;;24.60;50.20;;;;;;4507869;31;20103;-66
2022/08/06 11:20:48;;;;;;;3.72;2.30;;;24.70;50.20;;;;;;4508006;31;20072;-66
2022/08/06 11:23:14;;;;;;;3.97;2.50;;;24.60;50.10;;;;;;4508395;31;20100;-68
2022/08/06 11:25:45;;;;;;;4.05;2.45;;;24.60;50.00;;;;;;4507856;31;20193;-67
2022/08/06 11:28:16;;;;;;;4.82;2.67;;;24.60;49.90;;;;;;4507715;31;20080;-66
2022/08/06 11:30:45;;;;;;;4.53;2.70;;;24.60;49.90;;;;;;4507923;31;20182;-66
2022/08/06 11:33:12;;;;;;;4.85;2.67;;;24.60;49.50;;;;;;4507879;31;20514;-67
2022/08/06 11:35:40;;;;;;;4.38;2.75;;;24.60;49.30;;;;;;4507775;31;20543;-67
2022/08/06 11:38:08;;;;;;;4.30;2.80;;;24.70;49.30;;;;;;4508089;31;20162;-67
2022/08/06 11:40:57;;;;;;;3.33;2.70;;;24.60;49.40;;;;;;4507803;31;20418;-71
2022/08/06 11:43:46;;;;;;;6.10;2.83;;;24.60;49.40;;;;;;4501240;31;20069;-67
2022/08/06 11:46:25;;;;;;;3.65;2.70;;;24.70;49.30;;;;;;4507492;31;20083;-67
2022/08/06 11:48:59;;;;;;;4.78;2.75;;;24.70;49.30;;;;;;4507732;31;20092;-66
2022/08/06 11:51:44;;;;;;;5.93;3.35;;;24.70;49.30;;;;;;4508009;31;20084;-66
2022/08/06 11:54:25;;;;;;;4.20;2.80;;;24.70;49.40;;;;;;4507381;31;20068;-67
2022/08/06 11:57:08;;;;;;;2.95;2.60;;;24.70;49.30;;;;;;4507439;31;20088;-66
2022/08/06 11:59:47;;;;;;;;;;;24.70;49.40;;;;;;4508456;31;20057;-71
2022/08/06 12:02:33;;;;;;;5.05;3.25;;;24.70;50.20;;;;;;4507263;31;19977;-67
2022/08/06 12:04:59;;;;;;;3.40;2.80;;;24.70;49.60;;;;;;4507550;31;20119;-66
2022/08/06 12:07:27;;;;;;;3.42;2.97;;;24.70;49.40;;;;;;4507557;31;20206;-66
2022/08/06 12:09:59;;;;;;;3.38;3.03;;;24.70;49.20;;;;;;4507613;31;20092;-66
2022/08/06 12:12:28;;;;;;;4.27;3.20;;;24.70;49.00;;;;;;4507343;31;20521;-66
2022/08/06 12:14:56;;;;;;;4.22;3.10;;;24.70;49.10;;;;;;4507527;31;20541;-66
2022/08/06 12:17:23;;;;;;;6.10;3.22;;;24.70;49.10;;;;;;4507548;31;20150;-66
2022/08/06 12:19:51;;;;;;;4.10;3.10;;;24.70;49.10;;;;;;4509365;31;20680;-66
2022/08/06 12:22:23;;;;;;;4.35;3.10;;;24.70;49.30;;;;;;4510946;31;20076;-66
2022/08/06 12:24:55;;;;;;;3.85;3.20;;;24.70;49.40;;;;;;4510609;31;20168;-66
2022/08/06 12:27:33;;;;;;;5.78;3.45;;;24.70;49.30;;;;;;4510642;31;20416;-67
2022/08/06 12:30:01;;;;;;;5.07;3.53;;;24.70;49.40;;;;;;4510680;31;20077;-66
2022/08/06 12:32:30;;;;;;;4.25;3.10;;;24.70;49.20;;;;;;4510879;31;20091;-66
2022/08/06 12:34:58;;;;;;;3.88;3.10;;;24.70;48.90;;;;;;4510427;31;20104;-67
2022/08/06 12:37:54;;;;;;;5.55;3.30;;;24.70;48.70;;;;;;4510409;31;20425;-67
2022/08/06 12:40:26;;;;;;;4.28;3.25;;;24.70;48.20;;;;;;4500453;31;20069;-66
2022/08/06 12:43:11;;;;;;;5.28;3.50;;;24.80;48.60;;;;;;4510349;31;20080;-66
2022/08/06 12:45:37;;;;;;;3.80;3.10;;;24.80;48.10;;;;;;4509785;31;20174;-67
2022/08/06 12:48:06;;;;;;;5.75;3.20;;;24.70;48.20;;;;;;4510275;31;20077;-66
2022/08/06 12:50:37;;;;;;;3.15;2.85;;;24.80;48.10;;;;;;4510238;31;20081;-66
2022/08/06 12:53:03;;;;;;;3.88;3.20;;;24.80;47.90;;;;;;4510307;31;20056;-67
2022/08/06 12:55:29;;;;;;;3.97;3.50;;;24.80;47.80;;;;;;4495550;31;20174;-67
2022/08/06 12:57:57;;;;;;;3.22;2.88;;;24.80;47.50;;;;;;4510378;31;20079;-66
2022/08/06 13:00:23;;;;;;;4.38;3.10;;;24.80;47.30;;;;;;4495873;31;20223;-67
2022/08/06 13:02:50;;;;;;;3.80;3.20;;;24.80;47.30;;;;;;4510020;31;20069;-67
2022/08/06 13:05:17;;;;;;;3.92;3.10;;;24.80;47.20;;;;;;4509952;31;20203;-66
2022/08/06 13:07:43;;;;;;;4.75;3.40;;;24.80;47.30;;;;;;4509976;31;20091;-67
2022/08/06 13:10:10;;;;;;;4.95;3.15;;;24.90;47.20;;;;;;4510166;31;20226;-67